sensor_id;sensor_type;location;lat;lon;timestamp;P1;durP1;ratioP1;P2;durP2;ratioP2
29384;SDS011;16367;48.736;9.218;2022-12-07T00:01:18;12.30;;;5.90;;
29384;SDS011;16367;48.736;9.218;2022-12-07T00:03:22;14.23;;;5.68;;
29384;SDS011;16367;48.736;9.218;2022-12-07T00:05:24;11.85;;;5.95;;
29384;SDS011;16367;48.736;9.218;2022-12-07T00:07:27;11.88;;;6.05;;
29384;SDS011;16367;48.736;9.218;2022-12-07T00:09:30;12.45;;;5.50;;
29384;SDS011;16367;48.736;9.218;2022-12-07T00:11:32;12.88;;;5.90;;
29384;SDS011;16367;48.736;9.218;2022-12-07T00:13:36;12.75;;;6.00;;
29384;SDS011;16367;48.736;9.218;2022-12-07T00:15:39;12.82;;;5.82;;
29384;SDS011;16367;48.736;9.218;2022-12-07T00:17:43;11.50;;;5.30;;
29384;SDS011;16367;48.736;9.218;2022-12-07T00:19:46;14.10;;;5.95;;
29384;SDS011;16367;48.736;9.218;2022-12-07T00:21:49;12.77;;;6.20;;
29384;SDS011;16367;48.736;9.218;2022-12-07T00:23:52;13.85;;;5.85;;
29384;SDS011;16367;48.736;9.218;2022-12-07T00:25:55;12.27;;;5.05;;
29384;SDS011;16367;48.736;9.218;2022-12-07T00:27:58;14.55;;;5.40;;
29384;SDS011;16367;48.736;9.218;2022-12-07T00:30:01;12.77;;;5.80;;
29384;SDS011;16367;48.736;9.218;2022-12-07T00:32:04;13.55;;;6.38;;
29384;SDS011;16367;48.736;9.218;2022-12-07T00:34:11;13.43;;;5.65;;
29384;SDS011;16367;48.736;9.218;2022-12-07T00:36:16;14.32;;;6.50;;
29384;SDS011;16367;48.736;9.218;2022-12-07T00:38:27;13.15;;;5.82;;
29384;SDS011;16367;48.736;9.218;2022-12-07T00:40:31;12.00;;;6.13;;
29384;SDS011;16367;48.736;9.218;2022-12-07T00:42:34;14.57;;;6.30;;
29384;SDS011;16367;48.736;9.218;2022-12-07T00:44:36;15.65;;;6.90;;
29384;SDS011;16367;48.736;9.218;2022-12-07T00:46:39;12.25;;;5.75;;
29384;SDS011;16367;48.736;9.218;2022-12-07T00:48:42;13.15;;;6.20;;
29384;SDS011;16367;48.736;9.218;2022-12-07T00:50:46;13.07;;;6.63;;
29384;SDS011;16367;48.736;9.218;2022-12-07T00:52:48;14.30;;;5.97;;
29384;SDS011;16367;48.736;9.218;2022-12-07T00:54:51;16.65;;;6.20;;
29384;SDS011;16367;48.736;9.218;2022-12-07T00:56:54;13.85;;;6.13;;
29384;SDS011;16367;48.736;9.218;2022-12-07T00:58:57;15.55;;;7.22;;
29384;SDS011;16367;48.736;9.218;2022-12-07T01:01:02;13.30;;;6.85;;
29384;SDS011;16367;48.736;9.218;2022-12-07T01:03:06;14.65;;;7.43;;
29384;SDS011;16367;48.736;9.218;2022-12-07T01:05:10;15.82;;;7.90;;
29384;SDS011;16367;48.736;9.218;2022-12-07T01:07:14;14.57;;;7.10;;
29384;SDS011;16367;48.736;9.218;2022-12-07T01:09:17;14.02;;;6.30;;
29384;SDS011;16367;48.736;9.218;2022-12-07T01:11:20;12.55;;;6.75;;
29384;SDS011;16367;48.736;9.218;2022-12-07T01:13:24;15.40;;;6.63;;
29384;SDS011;16367;48.736;9.218;2022-12-07T01:15:27;12.68;;;6.30;;
29384;SDS011;16367;48.736;9.218;2022-12-07T01:17:30;14.65;;;6.78;;
29384;SDS011;16367;48.736;9.218;2022-12-07T01:19:32;13.55;;;6.10;;
29384;SDS011;16367;48.736;9.218;2022-12-07T01:21:35;16.38;;;7.28;;
29384;SDS011;16367;48.736;9.218;2022-12-07T01:23:40;16.38;;;6.97;;
29384;SDS011;16367;48.736;9.218;2022-12-07T01:25:43;16.65;;;7.50;;
29384;SDS011;16367;48.736;9.218;2022-12-07T01:27:46;17.23;;;7.32;;
29384;SDS011;16367;48.736;9.218;2022-12-07T01:29:50;15.05;;;7.38;;
29384;SDS011;16367;48.736;9.218;2022-12-07T01:31:53;14.25;;;6.75;;
29384;SDS011;16367;48.736;9.218;2022-12-07T01:33:56;15.00;;;6.50;;
29384;SDS011;16367;48.736;9.218;2022-12-07T01:36:01;12.95;;;6.60;;
29384;SDS011;16367;48.736;9.218;2022-12-07T01:38:04;16.55;;;6.88;;
29384;SDS011;16367;48.736;9.218;2022-12-07T01:40:09;15.50;;;7.10;;
29384;SDS011;16367;48.736;9.218;2022-12-07T01:42:13;14.80;;;6.32;;
29384;SDS011;16367;48.736;9.218;2022-12-07T01:44:17;15.27;;;7.57;;
29384;SDS011;16367;48.736;9.218;2022-12-07T01:46:22;16.30;;;7.65;;
29384;SDS011;16367;48.736;9.218;2022-12-07T01:48:26;17.30;;;6.50;;
29384;SDS011;16367;48.736;9.218;2022-12-07T01:50:31;16.58;;;7.53;;
29384;SDS011;16367;48.736;9.218;2022-12-07T01:52:34;13.57;;;5.88;;
29384;SDS011;16367;48.736;9.218;2022-12-07T01:54:38;12.98;;;6.13;;
29384;SDS011;16367;48.736;9.218;2022-12-07T01:56:44;14.20;;;6.75;;
29384;SDS011;16367;48.736;9.218;2022-12-07T01:58:51;15.55;;;8.18;;
29384;SDS011;16367;48.736;9.218;2022-12-07T02:00:55;15.52;;;6.75;;
29384;SDS011;16367;48.736;9.218;2022-12-07T02:03:00;14.93;;;6.70;;
29384;SDS011;16367;48.736;9.218;2022-12-07T02:05:06;15.80;;;5.97;;
29384;SDS011;16367;48.736;9.218;2022-12-07T02:07:09;15.32;;;6.55;;
29384;SDS011;16367;48.736;9.218;2022-12-07T02:09:12;14.70;;;5.93;;
29384;SDS011;16367;48.736;9.218;2022-12-07T02:11:15;16.15;;;7.00;;
29384;SDS011;16367;48.736;9.218;2022-12-07T02:13:21;14.02;;;6.25;;
29384;SDS011;16367;48.736;9.218;2022-12-07T02:15:28;16.65;;;7.25;;
29384;SDS011;16367;48.736;9.218;2022-12-07T02:17:41;17.52;;;7.70;;
29384;SDS011;16367;48.736;9.218;2022-12-07T02:20:06;16.60;;;7.55;;
29384;SDS011;16367;48.736;9.218;2022-12-07T02:22:18;16.55;;;6.45;;
29384;SDS011;16367;48.736;9.218;2022-12-07T02:24:44;16.30;;;6.57;;
29384;SDS011;16367;48.736;9.218;2022-12-07T02:27:07;15.45;;;6.80;;
29384;SDS011;16367;48.736;9.218;2022-12-07T02:29:23;15.23;;;6.85;;
29384;SDS011;16367;48.736;9.218;2022-12-07T02:31:29;15.07;;;7.47;;
29384;SDS011;16367;48.736;9.218;2022-12-07T02:33:35;16.85;;;6.95;;
29384;SDS011;16367;48.736;9.218;2022-12-07T02:35:44;14.90;;;6.85;;
29384;SDS011;16367;48.736;9.218;2022-12-07T02:37:56;14.73;;;6.97;;
29384;SDS011;16367;48.736;9.218;2022-12-07T02:40:05;14.88;;;6.60;;
29384;SDS011;16367;48.736;9.218;2022-12-07T02:42:13;14.40;;;5.60;;
29384;SDS011;16367;48.736;9.218;2022-12-07T02:44:20;15.45;;;6.47;;
29384;SDS011;16367;48.736;9.218;2022-12-07T02:46:29;14.10;;;6.47;;
29384;SDS011;16367;48.736;9.218;2022-12-07T02:48:35;14.80;;;6.28;;
29384;SDS011;16367;48.736;9.218;2022-12-07T02:50:43;14.82;;;6.47;;
29384;SDS011;16367;48.736;9.218;2022-12-07T02:52:47;15.27;;;6.13;;
29384;SDS011;16367;48.736;9.218;2022-12-07T02:54:49;13.98;;;5.85;;
29384;SDS011;16367;48.736;9.218;2022-12-07T02:56:53;14.55;;;6.18;;
29384;SDS011;16367;48.736;9.218;2022-12-07T02:59:08;11.32;;;5.13;;
29384;SDS011;16367;48.736;9.218;2022-12-07T03:01:19;14.38;;;6.93;;
29384;SDS011;16367;48.736;9.218;2022-12-07T03:03:30;13.35;;;5.93;;
29384;SDS011;16367;48.736;9.218;2022-12-07T03:05:42;14.05;;;6.22;;
29384;SDS011;16367;48.736;9.218;2022-12-07T03:07:58;14.38;;;6.00;;
29384;SDS011;16367;48.736;9.218;2022-12-07T03:10:07;14.23;;;5.93;;
29384;SDS011;16367;48.736;9.218;2022-12-07T03:12:12;18.17;;;6.20;;
29384;SDS011;16367;48.736;9.218;2022-12-07T03:14:21;15.25;;;5.80;;
29384;SDS011;16367;48.736;9.218;2022-12-07T03:16:30;13.27;;;5.75;;
29384;SDS011;16367;48.736;9.218;2022-12-07T03:18:38;12.65;;;5.15;;
29384;SDS011;16367;48.736;9.218;2022-12-07T03:20:41;18.30;;;5.78;;
29384;SDS011;16367;48.736;9.218;2022-12-07T03:22:48;12.98;;;5.88;;
29384;SDS011;16367;48.736;9.218;2022-12-07T03:24:52;13.52;;;5.22;;
29384;SDS011;16367;48.736;9.218;2022-12-07T03:26:59;12.60;;;5.55;;
29384;SDS011;16367;48.736;9.218;2022-12-07T03:29:08;11.55;;;5.63;;
29384;SDS011;16367;48.736;9.218;2022-12-07T03:31:17;15.90;;;6.22;;
29384;SDS011;16367;48.736;9.218;2022-12-07T03:35:31;15.65;;;5.90;;
29384;SDS011;16367;48.736;9.218;2022-12-07T03:37:38;13.63;;;6.15;;
29384;SDS011;16367;48.736;9.218;2022-12-07T03:41:48;15.60;;;7.07;;
29384;SDS011;16367;48.736;9.218;2022-12-07T03:43:53;15.23;;;6.20;;
29384;SDS011;16367;48.736;9.218;2022-12-07T03:46:00;15.57;;;6.80;;
29384;SDS011;16367;48.736;9.218;2022-12-07T03:48:11;15.15;;;6.85;;
29384;SDS011;16367;48.736;9.218;2022-12-07T03:50:28;15.57;;;6.22;;
29384;SDS011;16367;48.736;9.218;2022-12-07T03:52:36;12.93;;;5.68;;
29384;SDS011;16367;48.736;9.218;2022-12-07T03:54:43;16.02;;;6.00;;
29384;SDS011;16367;48.736;9.218;2022-12-07T03:56:50;16.40;;;7.40;;
29384;SDS011;16367;48.736;9.218;2022-12-07T03:58:55;15.07;;;6.68;;
29384;SDS011;16367;48.736;9.218;2022-12-07T04:00:57;14.32;;;6.35;;
29384;SDS011;16367;48.736;9.218;2022-12-07T04:03:00;14.32;;;6.25;;
29384;SDS011;16367;48.736;9.218;2022-12-07T04:05:03;19.17;;;6.65;;
29384;SDS011;16367;48.736;9.218;2022-12-07T04:07:08;14.52;;;7.28;;
29384;SDS011;16367;48.736;9.218;2022-12-07T04:09:11;14.95;;;6.45;;
29384;SDS011;16367;48.736;9.218;2022-12-07T04:11:15;16.95;;;6.65;;
29384;SDS011;16367;48.736;9.218;2022-12-07T04:13:18;14.68;;;6.10;;
29384;SDS011;16367;48.736;9.218;2022-12-07T04:15:20;14.40;;;6.55;;
29384;SDS011;16367;48.736;9.218;2022-12-07T04:17:23;18.00;;;7.35;;
29384;SDS011;16367;48.736;9.218;2022-12-07T04:19:27;14.07;;;5.40;;
29384;SDS011;16367;48.736;9.218;2022-12-07T04:21:31;13.52;;;6.18;;
29384;SDS011;16367;48.736;9.218;2022-12-07T04:23:35;13.23;;;6.07;;
29384;SDS011;16367;48.736;9.218;2022-12-07T04:25:38;15.10;;;6.30;;
29384;SDS011;16367;48.736;9.218;2022-12-07T04:27:40;13.55;;;6.35;;
29384;SDS011;16367;48.736;9.218;2022-12-07T04:29:43;14.88;;;6.45;;
29384;SDS011;16367;48.736;9.218;2022-12-07T04:31:46;14.70;;;6.03;;
29384;SDS011;16367;48.736;9.218;2022-12-07T04:33:49;15.43;;;6.80;;
29384;SDS011;16367;48.736;9.218;2022-12-07T04:35:51;14.93;;;6.75;;
29384;SDS011;16367;48.736;9.218;2022-12-07T04:37:54;14.70;;;6.38;;
29384;SDS011;16367;48.736;9.218;2022-12-07T04:39:58;13.27;;;5.78;;
29384;SDS011;16367;48.736;9.218;2022-12-07T04:42:02;12.15;;;5.13;;
29384;SDS011;16367;48.736;9.218;2022-12-07T04:44:05;14.23;;;5.82;;
29384;SDS011;16367;48.736;9.218;2022-12-07T04:46:08;15.32;;;6.57;;
29384;SDS011;16367;48.736;9.218;2022-12-07T04:48:11;13.90;;;6.30;;
29384;SDS011;16367;48.736;9.218;2022-12-07T04:50:14;15.50;;;6.32;;
29384;SDS011;16367;48.736;9.218;2022-12-07T04:52:16;14.95;;;6.18;;
29384;SDS011;16367;48.736;9.218;2022-12-07T04:54:19;13.93;;;5.93;;
29384;SDS011;16367;48.736;9.218;2022-12-07T04:56:24;12.52;;;5.32;;
29384;SDS011;16367;48.736;9.218;2022-12-07T04:58:26;11.05;;;5.38;;
29384;SDS011;16367;48.736;9.218;2022-12-07T05:00:29;10.00;;;3.92;;
29384;SDS011;16367;48.736;9.218;2022-12-07T05:02:32;7.95;;;3.38;;
29384;SDS011;16367;48.736;9.218;2022-12-07T05:04:35;7.00;;;2.75;;
29384;SDS011;16367;48.736;9.218;2022-12-07T05:06:44;8.18;;;3.08;;
29384;SDS011;16367;48.736;9.218;2022-12-07T05:08:47;8.32;;;3.30;;
29384;SDS011;16367;48.736;9.218;2022-12-07T05:10:50;7.72;;;3.08;;
29384;SDS011;16367;48.736;9.218;2022-12-07T05:12:54;7.43;;;3.25;;
29384;SDS011;16367;48.736;9.218;2022-12-07T05:14:56;10.60;;;3.72;;
29384;SDS011;16367;48.736;9.218;2022-12-07T05:16:59;10.10;;;3.92;;
29384;SDS011;16367;48.736;9.218;2022-12-07T05:19:02;7.72;;;3.55;;
29384;SDS011;16367;48.736;9.218;2022-12-07T05:21:05;7.43;;;3.08;;
29384;SDS011;16367;48.736;9.218;2022-12-07T05:23:08;8.68;;;3.45;;
29384;SDS011;16367;48.736;9.218;2022-12-07T05:25:10;8.13;;;3.50;;
29384;SDS011;16367;48.736;9.218;2022-12-07T05:27:13;8.98;;;3.20;;
29384;SDS011;16367;48.736;9.218;2022-12-07T05:29:17;7.70;;;3.45;;
29384;SDS011;16367;48.736;9.218;2022-12-07T05:31:20;7.97;;;2.75;;
29384;SDS011;16367;48.736;9.218;2022-12-07T05:33:23;7.03;;;3.10;;
29384;SDS011;16367;48.736;9.218;2022-12-07T05:35:26;8.18;;;3.30;;
29384;SDS011;16367;48.736;9.218;2022-12-07T05:37:28;8.77;;;4.25;;
29384;SDS011;16367;48.736;9.218;2022-12-07T05:39:34;10.05;;;4.20;;
29384;SDS011;16367;48.736;9.218;2022-12-07T05:41:36;9.23;;;3.92;;
29384;SDS011;16367;48.736;9.218;2022-12-07T05:43:57;7.82;;;3.80;;
29384;SDS011;16367;48.736;9.218;2022-12-07T05:46:01;9.13;;;3.35;;
29384;SDS011;16367;48.736;9.218;2022-12-07T05:48:04;7.65;;;3.65;;
29384;SDS011;16367;48.736;9.218;2022-12-07T05:50:07;8.57;;;4.15;;
29384;SDS011;16367;48.736;9.218;2022-12-07T05:52:09;8.02;;;3.30;;
29384;SDS011;16367;48.736;9.218;2022-12-07T05:54:12;8.07;;;3.28;;
29384;SDS011;16367;48.736;9.218;2022-12-07T05:56:15;9.98;;;3.95;;
29384;SDS011;16367;48.736;9.218;2022-12-07T05:58:17;12.20;;;4.25;;
29384;SDS011;16367;48.736;9.218;2022-12-07T06:00:38;12.10;;;4.97;;
29384;SDS011;16367;48.736;9.218;2022-12-07T06:02:42;11.63;;;5.22;;
29384;SDS011;16367;48.736;9.218;2022-12-07T06:04:45;13.00;;;5.95;;
29384;SDS011;16367;48.736;9.218;2022-12-07T06:06:48;13.20;;;5.40;;
29384;SDS011;16367;48.736;9.218;2022-12-07T06:08:51;12.75;;;5.43;;
29384;SDS011;16367;48.736;9.218;2022-12-07T06:10:54;12.55;;;5.22;;
29384;SDS011;16367;48.736;9.218;2022-12-07T06:13:10;14.63;;;6.10;;
29384;SDS011;16367;48.736;9.218;2022-12-07T06:15:13;13.57;;;5.72;;
29384;SDS011;16367;48.736;9.218;2022-12-07T06:17:16;14.63;;;5.82;;
29384;SDS011;16367;48.736;9.218;2022-12-07T06:19:21;12.13;;;5.82;;
29384;SDS011;16367;48.736;9.218;2022-12-07T06:21:23;13.50;;;6.32;;
29384;SDS011;16367;48.736;9.218;2022-12-07T06:23:27;13.18;;;5.25;;
29384;SDS011;16367;48.736;9.218;2022-12-07T06:25:30;11.05;;;4.70;;
29384;SDS011;16367;48.736;9.218;2022-12-07T06:27:33;11.43;;;5.03;;
29384;SDS011;16367;48.736;9.218;2022-12-07T06:29:36;12.77;;;6.05;;
29384;SDS011;16367;48.736;9.218;2022-12-07T06:31:39;14.82;;;6.25;;
29384;SDS011;16367;48.736;9.218;2022-12-07T06:33:42;14.20;;;5.97;;
29384;SDS011;16367;48.736;9.218;2022-12-07T06:35:46;9.65;;;4.65;;
29384;SDS011;16367;48.736;9.218;2022-12-07T06:37:49;10.70;;;4.93;;
29384;SDS011;16367;48.736;9.218;2022-12-07T06:39:52;10.68;;;5.35;;
29384;SDS011;16367;48.736;9.218;2022-12-07T06:41:54;13.07;;;5.15;;
29384;SDS011;16367;48.736;9.218;2022-12-07T06:43:57;11.55;;;5.60;;
29384;SDS011;16367;48.736;9.218;2022-12-07T06:46:00;10.02;;;3.97;;
29384;SDS011;16367;48.736;9.218;2022-12-07T06:48:03;12.52;;;4.82;;
29384;SDS011;16367;48.736;9.218;2022-12-07T06:50:06;9.63;;;4.47;;
29384;SDS011;16367;48.736;9.218;2022-12-07T06:52:11;13.07;;;4.82;;
29384;SDS011;16367;48.736;9.218;2022-12-07T06:54:14;10.88;;;4.85;;
29384;SDS011;16367;48.736;9.218;2022-12-07T06:56:17;10.35;;;4.55;;
29384;SDS011;16367;48.736;9.218;2022-12-07T06:58:20;10.23;;;4.93;;
29384;SDS011;16367;48.736;9.218;2022-12-07T07:00:23;9.65;;;4.70;;
29384;SDS011;16367;48.736;9.218;2022-12-07T07:02:26;11.30;;;4.97;;
29384;SDS011;16367;48.736;9.218;2022-12-07T07:04:28;11.07;;;4.32;;
29384;SDS011;16367;48.736;9.218;2022-12-07T07:06:31;12.60;;;5.25;;
29384;SDS011;16367;48.736;9.218;2022-12-07T07:08:35;10.45;;;4.50;;
29384;SDS011;16367;48.736;9.218;2022-12-07T07:10:39;13.10;;;4.47;;
29384;SDS011;16367;48.736;9.218;2022-12-07T07:12:41;11.50;;;4.53;;
29384;SDS011;16367;48.736;9.218;2022-12-07T07:14:44;10.35;;;4.03;;
29384;SDS011;16367;48.736;9.218;2022-12-07T07:16:47;9.52;;;4.25;;
29384;SDS011;16367;48.736;9.218;2022-12-07T07:18:49;13.07;;;4.53;;
29384;SDS011;16367;48.736;9.218;2022-12-07T07:20:52;10.60;;;4.80;;
29384;SDS011;16367;48.736;9.218;2022-12-07T07:22:56;10.18;;;4.50;;
29384;SDS011;16367;48.736;9.218;2022-12-07T07:25:00;10.25;;;4.60;;
29384;SDS011;16367;48.736;9.218;2022-12-07T07:27:03;9.45;;;4.70;;
29384;SDS011;16367;48.736;9.218;2022-12-07T07:29:05;10.82;;;4.45;;
29384;SDS011;16367;48.736;9.218;2022-12-07T07:31:08;12.07;;;4.82;;
29384;SDS011;16367;48.736;9.218;2022-12-07T07:33:11;12.60;;;5.00;;
29384;SDS011;16367;48.736;9.218;2022-12-07T07:35:14;12.50;;;4.70;;
29384;SDS011;16367;48.736;9.218;2022-12-07T07:37:17;12.13;;;5.18;;
29384;SDS011;16367;48.736;9.218;2022-12-07T07:39:22;12.20;;;5.22;;
29384;SDS011;16367;48.736;9.218;2022-12-07T07:41:26;11.82;;;5.32;;
29384;SDS011;16367;48.736;9.218;2022-12-07T07:43:29;12.00;;;5.13;;
29384;SDS011;16367;48.736;9.218;2022-12-07T07:45:31;12.10;;;5.38;;
29384;SDS011;16367;48.736;9.218;2022-12-07T07:47:34;11.88;;;5.95;;
29384;SDS011;16367;48.736;9.218;2022-12-07T07:49:40;10.80;;;4.68;;
29384;SDS011;16367;48.736;9.218;2022-12-07T07:51:48;11.20;;;4.82;;
29384;SDS011;16367;48.736;9.218;2022-12-07T07:53:51;11.90;;;5.40;;
29384;SDS011;16367;48.736;9.218;2022-12-07T07:55:53;10.73;;;4.60;;
29384;SDS011;16367;48.736;9.218;2022-12-07T07:57:58;12.55;;;5.68;;
29384;SDS011;16367;48.736;9.218;2022-12-07T08:00:01;12.75;;;5.72;;
29384;SDS011;16367;48.736;9.218;2022-12-07T08:02:06;15.70;;;6.32;;
29384;SDS011;16367;48.736;9.218;2022-12-07T08:04:11;12.13;;;5.60;;
29384;SDS011;16367;48.736;9.218;2022-12-07T08:06:14;13.48;;;6.18;;
29384;SDS011;16367;48.736;9.218;2022-12-07T08:08:16;12.95;;;6.00;;
29384;SDS011;16367;48.736;9.218;2022-12-07T08:10:19;13.73;;;5.38;;
29384;SDS011;16367;48.736;9.218;2022-12-07T08:12:22;13.52;;;5.90;;
29384;SDS011;16367;48.736;9.218;2022-12-07T08:14:26;16.17;;;5.53;;
29384;SDS011;16367;48.736;9.218;2022-12-07T08:16:30;13.85;;;6.18;;
29384;SDS011;16367;48.736;9.218;2022-12-07T08:18:34;13.57;;;5.93;;
29384;SDS011;16367;48.736;9.218;2022-12-07T08:20:38;12.90;;;5.97;;
29384;SDS011;16367;48.736;9.218;2022-12-07T08:22:41;14.80;;;6.70;;
29384;SDS011;16367;48.736;9.218;2022-12-07T08:24:44;13.73;;;5.63;;
29384;SDS011;16367;48.736;9.218;2022-12-07T08:26:47;14.88;;;6.10;;
29384;SDS011;16367;48.736;9.218;2022-12-07T08:28:52;13.30;;;6.20;;
29384;SDS011;16367;48.736;9.218;2022-12-07T08:30:59;14.73;;;6.03;;
29384;SDS011;16367;48.736;9.218;2022-12-07T08:33:03;15.73;;;6.03;;
29384;SDS011;16367;48.736;9.218;2022-12-07T08:35:06;14.13;;;6.05;;
29384;SDS011;16367;48.736;9.218;2022-12-07T08:37:09;15.88;;;6.70;;
29384;SDS011;16367;48.736;9.218;2022-12-07T08:39:12;12.48;;;5.13;;
29384;SDS011;16367;48.736;9.218;2022-12-07T08:41:32;12.70;;;4.65;;
29384;SDS011;16367;48.736;9.218;2022-12-07T08:43:35;12.30;;;5.63;;
29384;SDS011;16367;48.736;9.218;2022-12-07T08:45:39;12.73;;;4.95;;
29384;SDS011;16367;48.736;9.218;2022-12-07T08:47:45;15.35;;;6.30;;
29384;SDS011;16367;48.736;9.218;2022-12-07T08:49:50;12.05;;;5.18;;
29384;SDS011;16367;48.736;9.218;2022-12-07T08:51:54;15.38;;;5.38;;
29384;SDS011;16367;48.736;9.218;2022-12-07T08:53:57;15.35;;;6.40;;
29384;SDS011;16367;48.736;9.218;2022-12-07T08:56:02;13.02;;;6.10;;
29384;SDS011;16367;48.736;9.218;2022-12-07T08:58:06;15.45;;;7.05;;
29384;SDS011;16367;48.736;9.218;2022-12-07T09:00:10;13.82;;;6.13;;
29384;SDS011;16367;48.736;9.218;2022-12-07T09:02:13;11.05;;;5.13;;
29384;SDS011;16367;48.736;9.218;2022-12-07T09:04:17;14.02;;;6.03;;
29384;SDS011;16367;48.736;9.218;2022-12-07T09:06:21;13.38;;;5.80;;
29384;SDS011;16367;48.736;9.218;2022-12-07T09:08:26;12.48;;;4.97;;
29384;SDS011;16367;48.736;9.218;2022-12-07T09:10:32;12.80;;;5.45;;
29384;SDS011;16367;48.736;9.218;2022-12-07T09:12:34;10.75;;;5.40;;
29384;SDS011;16367;48.736;9.218;2022-12-07T09:14:37;15.27;;;5.22;;
29384;SDS011;16367;48.736;9.218;2022-12-07T09:16:40;13.50;;;5.72;;
29384;SDS011;16367;48.736;9.218;2022-12-07T09:18:43;11.88;;;4.88;;
29384;SDS011;16367;48.736;9.218;2022-12-07T09:20:46;13.52;;;5.25;;
29384;SDS011;16367;48.736;9.218;2022-12-07T09:22:49;12.27;;;4.43;;
29384;SDS011;16367;48.736;9.218;2022-12-07T09:24:52;9.40;;;3.85;;
29384;SDS011;16367;48.736;9.218;2022-12-07T09:26:55;13.02;;;5.35;;
29384;SDS011;16367;48.736;9.218;2022-12-07T09:28:57;10.82;;;4.72;;
29384;SDS011;16367;48.736;9.218;2022-12-07T09:31:01;11.48;;;4.50;;
29384;SDS011;16367;48.736;9.218;2022-12-07T09:33:24;10.45;;;4.50;;
29384;SDS011;16367;48.736;9.218;2022-12-07T09:35:27;11.02;;;5.30;;
29384;SDS011;16367;48.736;9.218;2022-12-07T09:37:31;8.65;;;3.40;;
29384;SDS011;16367;48.736;9.218;2022-12-07T09:39:38;10.38;;;3.97;;
29384;SDS011;16367;48.736;9.218;2022-12-07T09:41:50;10.27;;;4.03;;
29384;SDS011;16367;48.736;9.218;2022-12-07T09:43:53;11.93;;;4.65;;
29384;SDS011;16367;48.736;9.218;2022-12-07T09:46:05;11.73;;;3.90;;
29384;SDS011;16367;48.736;9.218;2022-12-07T09:48:10;10.00;;;4.38;;
29384;SDS011;16367;48.736;9.218;2022-12-07T09:50:20;9.45;;;4.40;;
29384;SDS011;16367;48.736;9.218;2022-12-07T09:52:25;10.45;;;4.38;;
29384;SDS011;16367;48.736;9.218;2022-12-07T09:54:37;8.48;;;3.88;;
29384;SDS011;16367;48.736;9.218;2022-12-07T09:56:46;10.15;;;4.13;;
29384;SDS011;16367;48.736;9.218;2022-12-07T09:58:49;10.63;;;4.32;;
29384;SDS011;16367;48.736;9.218;2022-12-07T10:00:55;10.15;;;4.30;;
29384;SDS011;16367;48.736;9.218;2022-12-07T10:03:01;9.93;;;3.88;;
29384;SDS011;16367;48.736;9.218;2022-12-07T10:05:06;11.75;;;4.00;;
29384;SDS011;16367;48.736;9.218;2022-12-07T10:07:20;8.07;;;3.90;;
29384;SDS011;16367;48.736;9.218;2022-12-07T10:09:23;8.38;;;3.30;;
29384;SDS011;16367;48.736;9.218;2022-12-07T10:11:29;9.82;;;4.10;;
29384;SDS011;16367;48.736;9.218;2022-12-07T10:13:35;10.02;;;3.65;;
29384;SDS011;16367;48.736;9.218;2022-12-07T10:15:44;9.27;;;3.30;;
29384;SDS011;16367;48.736;9.218;2022-12-07T10:17:49;9.25;;;3.95;;
29384;SDS011;16367;48.736;9.218;2022-12-07T10:19:54;6.72;;;3.22;;
29384;SDS011;16367;48.736;9.218;2022-12-07T10:22:15;8.50;;;2.60;;
29384;SDS011;16367;48.736;9.218;2022-12-07T10:24:18;8.60;;;3.20;;
29384;SDS011;16367;48.736;9.218;2022-12-07T10:26:29;6.75;;;3.30;;
29384;SDS011;16367;48.736;9.218;2022-12-07T10:28:34;7.68;;;2.97;;
29384;SDS011;16367;48.736;9.218;2022-12-07T10:30:50;7.95;;;2.88;;
29384;SDS011;16367;48.736;9.218;2022-12-07T10:33:00;8.38;;;3.20;;
29384;SDS011;16367;48.736;9.218;2022-12-07T10:37:27;7.65;;;3.47;;
29384;SDS011;16367;48.736;9.218;2022-12-07T10:39:31;7.70;;;3.38;;
29384;SDS011;16367;48.736;9.218;2022-12-07T10:41:54;8.10;;;3.20;;
29384;SDS011;16367;48.736;9.218;2022-12-07T10:43:59;8.40;;;3.38;;
29384;SDS011;16367;48.736;9.218;2022-12-07T10:46:07;9.00;;;3.13;;
29384;SDS011;16367;48.736;9.218;2022-12-07T10:48:27;8.07;;;3.08;;
29384;SDS011;16367;48.736;9.218;2022-12-07T10:53:17;8.50;;;3.17;;
29384;SDS011;16367;48.736;9.218;2022-12-07T10:55:33;7.55;;;2.88;;
29384;SDS011;16367;48.736;9.218;2022-12-07T10:58:04;7.55;;;2.72;;
29384;SDS011;16367;48.736;9.218;2022-12-07T11:00:28;7.13;;;2.83;;
29384;SDS011;16367;48.736;9.218;2022-12-07T11:02:43;6.55;;;2.65;;
29384;SDS011;16367;48.736;9.218;2022-12-07T11:05:01;6.50;;;2.90;;
29384;SDS011;16367;48.736;9.218;2022-12-07T11:07:10;5.72;;;2.30;;
29384;SDS011;16367;48.736;9.218;2022-12-07T11:09:25;6.10;;;2.53;;
29384;SDS011;16367;48.736;9.218;2022-12-07T11:12:15;7.75;;;3.03;;
29384;SDS011;16367;48.736;9.218;2022-12-07T11:14:31;6.32;;;2.47;;
29384;SDS011;16367;48.736;9.218;2022-12-07T11:16:46;6.97;;;2.88;;
29384;SDS011;16367;48.736;9.218;2022-12-07T11:18:59;6.22;;;2.75;;
29384;SDS011;16367;48.736;9.218;2022-12-07T11:21:17;6.53;;;2.45;;
29384;SDS011;16367;48.736;9.218;2022-12-07T11:23:27;6.72;;;3.00;;
29384;SDS011;16367;48.736;9.218;2022-12-07T11:25:43;7.45;;;2.55;;
29384;SDS011;16367;48.736;9.218;2022-12-07T11:27:59;7.32;;;2.65;;
29384;SDS011;16367;48.736;9.218;2022-12-07T11:30:16;5.82;;;2.28;;
29384;SDS011;16367;48.736;9.218;2022-12-07T11:32:27;5.43;;;2.40;;
29384;SDS011;16367;48.736;9.218;2022-12-07T11:34:45;6.75;;;2.50;;
29384;SDS011;16367;48.736;9.218;2022-12-07T11:36:58;9.60;;;3.28;;
29384;SDS011;16367;48.736;9.218;2022-12-07T11:39:10;7.68;;;2.95;;
29384;SDS011;16367;48.736;9.218;2022-12-07T11:41:20;5.68;;;2.70;;
29384;SDS011;16367;48.736;9.218;2022-12-07T11:43:27;7.32;;;2.70;;
29384;SDS011;16367;48.736;9.218;2022-12-07T11:45:35;7.53;;;2.55;;
29384;SDS011;16367;48.736;9.218;2022-12-07T11:47:44;6.72;;;2.92;;
29384;SDS011;16367;48.736;9.218;2022-12-07T11:49:51;7.68;;;2.90;;
29384;SDS011;16367;48.736;9.218;2022-12-07T11:51:57;8.25;;;2.65;;
29384;SDS011;16367;48.736;9.218;2022-12-07T11:54:05;7.18;;;3.17;;
29384;SDS011;16367;48.736;9.218;2022-12-07T11:56:17;5.75;;;2.28;;
29384;SDS011;16367;48.736;9.218;2022-12-07T11:58:29;9.23;;;2.72;;
29384;SDS011;16367;48.736;9.218;2022-12-07T12:00:41;7.43;;;2.92;;
29384;SDS011;16367;48.736;9.218;2022-12-07T12:02:46;7.20;;;2.58;;
29384;SDS011;16367;48.736;9.218;2022-12-07T12:04:54;7.15;;;2.83;;
29384;SDS011;16367;48.736;9.218;2022-12-07T12:07:00;8.20;;;2.85;;
29384;SDS011;16367;48.736;9.218;2022-12-07T12:09:25;7.03;;;3.00;;
29384;SDS011;16367;48.736;9.218;2022-12-07T12:11:47;7.35;;;2.65;;
29384;SDS011;16367;48.736;9.218;2022-12-07T12:14:29;8.00;;;2.88;;
29384;SDS011;16367;48.736;9.218;2022-12-07T12:16:54;8.07;;;2.97;;
29384;SDS011;16367;48.736;9.218;2022-12-07T12:19:19;9.15;;;2.72;;
29384;SDS011;16367;48.736;9.218;2022-12-07T12:21:28;6.85;;;2.38;;
29384;SDS011;16367;48.736;9.218;2022-12-07T12:23:35;7.22;;;3.17;;
29384;SDS011;16367;48.736;9.218;2022-12-07T12:25:42;8.00;;;2.58;;
29384;SDS011;16367;48.736;9.218;2022-12-07T12:27:49;7.18;;;2.75;;
29384;SDS011;16367;48.736;9.218;2022-12-07T12:29:55;6.45;;;2.55;;
29384;SDS011;16367;48.736;9.218;2022-12-07T12:32:11;8.57;;;2.88;;
29384;SDS011;16367;48.736;9.218;2022-12-07T12:34:30;7.38;;;2.60;;
29384;SDS011;16367;48.736;9.218;2022-12-07T12:36:43;6.10;;;2.70;;
29384;SDS011;16367;48.736;9.218;2022-12-07T12:38:48;7.72;;;2.80;;
29384;SDS011;16367;48.736;9.218;2022-12-07T12:40:52;5.82;;;2.45;;
29384;SDS011;16367;48.736;9.218;2022-12-07T12:42:55;6.60;;;2.50;;